sensor_id;sensor_type;location;lat;lon;timestamp;pressure;altitude;pressure_sealevel;temperature;humidity
51530;BME280;37613;51.788;21.582;2022-12-10T00:03:32;99050.84;;;-0.35;100.00
51530;BME280;37613;51.788;21.582;2022-12-10T00:07:34;99042.59;;;-0.36;100.00
51530;BME280;37613;51.788;21.582;2022-12-10T00:11:36;99036.55;;;-0.35;100.00
51530;BME280;37613;51.788;21.582;2022-12-10T00:15:39;99034.38;;;-0.35;100.00
51530;BME280;37613;51.788;21.582;2022-12-10T00:19:41;99030.23;;;-0.36;100.00
51530;BME280;37613;51.788;21.582;2022-12-10T00:23:44;99031.15;;;-0.37;100.00
51530;BME280;37613;51.788;21.582;2022-12-10T00:27:46;99025.41;;;-0.37;100.00
51530;BME280;37613;51.788;21.582;2022-12-10T00:31:48;99026.63;;;-0.37;100.00
51530;BME280;37613;51.788;21.582;2022-12-10T00:35:50;99028.80;;;-0.38;100.00
51530;BME280;37613;51.788;21.582;2022-12-10T00:39:52;99029.20;;;-0.38;100.00
51530;BME280;37613;51.788;21.582;2022-12-10T00:43:54;99032.84;;;-0.38;100.00
51530;BME280;37613;51.788;21.582;2022-12-10T00:47:57;99040.23;;;-0.38;100.00
51530;BME280;37613;51.788;21.582;2022-12-10T00:51:59;99046.11;;;-0.38;100.00
51530;BME280;37613;51.788;21.582;2022-12-10T00:56:01;99052.62;;;-0.39;100.00
51530;BME280;37613;51.788;21.582;2022-12-10T01:00:05;99048.17;;;-0.39;100.00
51530;BME280;37613;51.788;21.582;2022-12-10T01:04:14;99035.56;;;-0.40;100.00
51530;BME280;37613;51.788;21.582;2022-12-10T01:08:17;99030.77;;;-0.42;100.00
51530;BME280;37613;51.788;21.582;2022-12-10T01:12:19;99034.39;;;-0.44;100.00
51530;BME280;37613;51.788;21.582;2022-12-10T01:16:22;99021.39;;;-0.45;100.00
51530;BME280;37613;51.788;21.582;2022-12-10T01:20:25;99013.05;;;-0.46;100.00
51530;BME280;37613;51.788;21.582;2022-12-10T01:24:27;99012.52;;;-0.46;100.00
51530;BME280;37613;51.788;21.582;2022-12-10T01:28:32;99005.36;;;-0.46;100.00
51530;BME280;37613;51.788;21.582;2022-12-10T01:32:35;99003.73;;;-0.46;100.00
51530;BME280;37613;51.788;21.582;2022-12-10T01:36:41;99004.17;;;-0.47;100.00
51530;BME280;37613;51.788;21.582;2022-12-10T01:40:43;99012.14;;;-0.48;100.00
51530;BME280;37613;51.788;21.582;2022-12-10T01:48:51;99007.85;;;-0.49;100.00
51530;BME280;37613;51.788;21.582;2022-12-10T01:52:53;99013.08;;;-0.48;100.00
51530;BME280;37613;51.788;21.582;2022-12-10T01:57:01;99009.57;;;-0.48;100.00
51530;BME280;37613;51.788;21.582;2022-12-10T02:01:08;99004.13;;;-0.49;100.00
51530;BME280;37613;51.788;21.582;2022-12-10T02:05:25;99007.61;;;-0.49;100.00
51530;BME280;37613;51.788;21.582;2022-12-10T02:09:50;99008.77;;;-0.49;100.00
51530;BME280;37613;51.788;21.582;2022-12-10T02:13:59;99003.49;;;-0.49;100.00
51530;BME280;37613;51.788;21.582;2022-12-10T02:18:07;99003.95;;;-0.50;100.00
51530;BME280;37613;51.788;21.582;2022-12-10T02:22:12;99005.02;;;-0.51;100.00
51530;BME280;37613;51.788;21.582;2022-12-10T02:26:27;98995.13;;;-0.52;100.00
51530;BME280;37613;51.788;21.582;2022-12-10T02:30:34;98994.02;;;-0.53;100.00
51530;BME280;37613;51.788;21.582;2022-12-10T02:34:43;98993.12;;;-0.55;100.00
51530;BME280;37613;51.788;21.582;2022-12-10T02:38:48;98991.45;;;-0.56;100.00
51530;BME280;37613;51.788;21.582;2022-12-10T02:42:51;98994.05;;;-0.57;100.00
51530;BME280;37613;51.788;21.582;2022-12-10T02:46:55;98989.77;;;-0.58;100.00
51530;BME280;37613;51.788;21.582;2022-12-10T02:50:59;98981.91;;;-0.60;100.00
51530;BME280;37613;51.788;21.582;2022-12-10T02:55:01;98986.02;;;-0.60;100.00
51530;BME280;37613;51.788;21.582;2022-12-10T02:59:19;98988.94;;;-0.61;100.00
51530;BME280;37613;51.788;21.582;2022-12-10T03:03:37;98989.33;;;-0.61;100.00
51530;BME280;37613;51.788;21.582;2022-12-10T03:11:59;98989.10;;;-0.61;100.00
51530;BME280;37613;51.788;21.582;2022-12-10T03:16:04;98991.56;;;-0.61;100.00
51530;BME280;37613;51.788;21.582;2022-12-10T03:20:10;98996.09;;;-0.61;100.00
51530;BME280;37613;51.788;21.582;2022-12-10T03:24:15;98997.88;;;-0.61;100.00
51530;BME280;37613;51.788;21.582;2022-12-10T03:28:19;98999.35;;;-0.61;100.00
51530;BME280;37613;51.788;21.582;2022-12-10T03:32:25;98996.86;;;-0.61;100.00
51530;BME280;37613;51.788;21.582;2022-12-10T03:36:29;98987.94;;;-0.61;100.00
51530;BME280;37613;51.788;21.582;2022-12-10T03:40:32;98986.14;;;-0.61;100.00
51530;BME280;37613;51.788;21.582;2022-12-10T03:44:37;98987.78;;;-0.61;100.00
51530;BME280;37613;51.788;21.582;2022-12-10T03:48:39;98988.08;;;-0.61;100.00
51530;BME280;37613;51.788;21.582;2022-12-10T03:52:41;98987.99;;;-0.62;100.00
51530;BME280;37613;51.788;21.582;2022-12-10T03:56:43;98992.48;;;-0.62;100.00
51530;BME280;37613;51.788;21.582;2022-12-10T04:00:46;99001.89;;;-0.61;100.00
51530;BME280;37613;51.788;21.582;2022-12-10T04:04:51;99005.31;;;-0.61;100.00
51530;BME280;37613;51.788;21.582;2022-12-10T04:08:53;99001.35;;;-0.62;100.00
51530;BME280;37613;51.788;21.582;2022-12-10T04:12:55;99006.30;;;-0.62;100.00
51530;BME280;37613;51.788;21.582;2022-12-10T04:17:16;98999.30;;;-0.62;100.00
51530;BME280;37613;51.788;21.582;2022-12-10T04:21:18;98993.88;;;-0.62;100.00
51530;BME280;37613;51.788;21.582;2022-12-10T04:25:39;98992.54;;;-0.63;100.00
51530;BME280;37613;51.788;21.582;2022-12-10T04:30:00;98993.88;;;-0.62;100.00
51530;BME280;37613;51.788;21.582;2022-12-10T04:34:02;98989.11;;;-0.63;100.00
51530;BME280;37613;51.788;21.582;2022-12-10T04:38:04;98986.39;;;-0.63;100.00
51530;BME280;37613;51.788;21.582;2022-12-10T04:42:07;98983.98;;;-0.63;100.00
51530;BME280;37613;51.788;21.582;2022-12-10T04:46:10;98984.08;;;-0.63;100.00
51530;BME280;37613;51.788;21.582;2022-12-10T04:50:12;98992.28;;;-0.63;100.00
51530;BME280;37613;51.788;21.582;2022-12-10T04:54:15;99006.20;;;-0.63;100.00
51530;BME280;37613;51.788;21.582;2022-12-10T04:58:17;99010.18;;;-0.62;100.00
51530;BME280;37613;51.788;21.582;2022-12-10T05:02:19;99009.64;;;-0.62;100.00
51530;BME280;37613;51.788;21.582;2022-12-10T05:06:21;99008.13;;;-0.63;100.00
51530;BME280;37613;51.788;21.582;2022-12-10T05:10:23;99013.41;;;-0.63;100.00
51530;BME280;37613;51.788;21.582;2022-12-10T05:14:25;99013.44;;;-0.65;100.00
51530;BME280;37613;51.788;21.582;2022-12-10T05:18:28;99011.46;;;-0.66;100.00
51530;BME280;37613;51.788;21.582;2022-12-10T05:22:30;99016.01;;;-0.68;100.00
51530;BME280;37613;51.788;21.582;2022-12-10T05:26:51;99017.10;;;-0.70;100.00
51530;BME280;37613;51.788;21.582;2022-12-10T05:30:53;99017.21;;;-0.71;100.00
51530;BME280;37613;51.788;21.582;2022-12-10T05:34:55;99018.98;;;-0.73;100.00
51530;BME280;37613;51.788;21.582;2022-12-10T05:38:58;99026.09;;;-0.74;100.00
51530;BME280;37613;51.788;21.582;2022-12-10T05:43:00;99023.89;;;-0.75;100.00
51530;BME280;37613;51.788;21.582;2022-12-10T05:47:02;99027.44;;;-0.75;100.00
51530;BME280;37613;51.788;21.582;2022-12-10T05:51:09;99032.41;;;-0.76;100.00
51530;BME280;37613;51.788;21.582;2022-12-10T05:55:11;99040.32;;;-0.76;100.00
51530;BME280;37613;51.788;21.582;2022-12-10T05:59:13;99035.43;;;-0.76;100.00
51530;BME280;37613;51.788;21.582;2022-12-10T06:03:15;99030.39;;;-0.76;100.00
51530;BME280;37613;51.788;21.582;2022-12-10T06:07:17;99036.43;;;-0.76;100.00
51530;BME280;37613;51.788;21.582;2022-12-10T06:11:19;99033.33;;;-0.76;100.00
51530;BME280;37613;51.788;21.582;2022-12-10T06:15:22;99032.11;;;-0.76;100.00
51530;BME280;37613;51.788;21.582;2022-12-10T06:19:24;99032.04;;;-0.75;100.00
51530;BME280;37613;51.788;21.582;2022-12-10T06:23:26;99032.80;;;-0.75;100.00
51530;BME280;37613;51.788;21.582;2022-12-10T06:27:30;99036.15;;;-0.75;100.00
51530;BME280;37613;51.788;21.582;2022-12-10T06:31:32;99045.15;;;-0.75;100.00
51530;BME280;37613;51.788;21.582;2022-12-10T06:35:37;99050.07;;;-0.74;100.00
51530;BME280;37613;51.788;21.582;2022-12-10T06:39:39;99052.02;;;-0.73;100.00
51530;BME280;37613;51.788;21.582;2022-12-10T06:43:41;99062.84;;;-0.72;100.00
51530;BME280;37613;51.788;21.582;2022-12-10T06:47:43;99076.77;;;-0.71;100.00
51530;BME280;37613;51.788;21.582;2022-12-10T06:51:47;99077.59;;;-0.69;100.00
51530;BME280;37613;51.788;21.582;2022-12-10T06:55:49;99079.55;;;-0.69;100.00
51530;BME280;37613;51.788;21.582;2022-12-10T06:59:52;99079.17;;;-0.68;100.00
51530;BME280;37613;51.788;21.582;2022-12-10T07:03:56;99082.05;;;-0.68;100.00
51530;BME280;37613;51.788;21.582;2022-12-10T07:07:58;99080.89;;;-0.68;100.00
51530;BME280;37613;51.788;21.582;2022-12-10T07:12:01;99084.32;;;-0.67;100.00
51530;BME280;37613;51.788;21.582;2022-12-10T07:16:07;99091.54;;;-0.67;100.00
51530;BME280;37613;51.788;21.582;2022-12-10T07:20:13;99092.02;;;-0.67;100.00
51530;BME280;37613;51.788;21.582;2022-12-10T07:24:17;99091.28;;;-0.65;100.00
51530;BME280;37613;51.788;21.582;2022-12-10T07:28:19;99095.10;;;-0.65;100.00
51530;BME280;37613;51.788;21.582;2022-12-10T07:32:21;99101.80;;;-0.64;100.00
51530;BME280;37613;51.788;21.582;2022-12-10T07:36:24;99105.04;;;-0.62;100.00
51530;BME280;37613;51.788;21.582;2022-12-10T07:40:26;99105.84;;;-0.61;100.00
51530;BME280;37613;51.788;21.582;2022-12-10T07:44:28;99106.55;;;-0.61;100.00
51530;BME280;37613;51.788;21.582;2022-12-10T07:48:30;99101.06;;;-0.60;100.00
51530;BME280;37613;51.788;21.582;2022-12-10T07:52:32;99093.98;;;-0.60;100.00
51530;BME280;37613;51.788;21.582;2022-12-10T07:56:34;99098.48;;;-0.61;100.00
51530;BME280;37613;51.788;21.582;2022-12-10T08:00:36;99089.12;;;-0.62;100.00
51530;BME280;37613;51.788;21.582;2022-12-10T08:04:38;99087.97;;;-0.62;100.00
51530;BME280;37613;51.788;21.582;2022-12-10T08:08:42;99090.44;;;-0.59;100.00
51530;BME280;37613;51.788;21.582;2022-12-10T08:12:44;99090.45;;;-0.58;100.00
51530;BME280;37613;51.788;21.582;2022-12-10T08:16:49;99090.16;;;-0.58;100.00
51530;BME280;37613;51.788;21.582;2022-12-10T08:20:51;99087.30;;;-0.57;100.00
51530;BME280;37613;51.788;21.582;2022-12-10T08:24:53;99086.60;;;-0.57;100.00
51530;BME280;37613;51.788;21.582;2022-12-10T08:28:56;99092.34;;;-0.57;100.00
51530;BME280;37613;51.788;21.582;2022-12-10T08:32:58;99102.69;;;-0.57;100.00
51530;BME280;37613;51.788;21.582;2022-12-10T08:37:00;99107.39;;;-0.55;100.00
51530;BME280;37613;51.788;21.582;2022-12-10T08:41:13;99115.84;;;-0.53;100.00
51530;BME280;37613;51.788;21.582;2022-12-10T08:45:16;99115.64;;;-0.51;100.00
51530;BME280;37613;51.788;21.582;2022-12-10T08:49:18;99116.72;;;-0.48;100.00
51530;BME280;37613;51.788;21.582;2022-12-10T08:53:20;99121.86;;;-0.45;100.00
51530;BME280;37613;51.788;21.582;2022-12-10T08:57:22;99122.56;;;-0.42;100.00
51530;BME280;37613;51.788;21.582;2022-12-10T09:01:25;99126.10;;;-0.40;100.00
51530;BME280;37613;51.788;21.582;2022-12-10T09:05:30;99135.16;;;-0.38;100.00
51530;BME280;37613;51.788;21.582;2022-12-10T09:09:32;99137.10;;;-0.36;100.00
51530;BME280;37613;51.788;21.582;2022-12-10T09:13:34;99136.11;;;-0.35;100.00
51530;BME280;37613;51.788;21.582;2022-12-10T09:17:37;99132.67;;;-0.35;100.00
51530;BME280;37613;51.788;21.582;2022-12-10T09:21:40;99141.77;;;-0.36;100.00
51530;BME280;37613;51.788;21.582;2022-12-10T09:25:42;99138.89;;;-0.36;100.00
51530;BME280;37613;51.788;21.582;2022-12-10T09:29:44;99136.62;;;-0.33;100.00
51530;BME280;37613;51.788;21.582;2022-12-10T09:33:48;99126.71;;;-0.29;100.00
51530;BME280;37613;51.788;21.582;2022-12-10T09:37:50;99125.29;;;-0.27;100.00
51530;BME280;37613;51.788;21.582;2022-12-10T09:50:56;99140.50;;;-0.21;100.00
51530;BME280;37613;51.788;21.582;2022-12-10T09:55:09;99142.05;;;-0.18;100.00
51530;BME280;37613;51.788;21.582;2022-12-10T09:59:37;99150.67;;;-0.18;100.00
51530;BME280;37613;51.788;21.582;2022-12-10T10:03:42;99162.94;;;-0.15;100.00
51530;BME280;37613;51.788;21.582;2022-12-10T10:07:48;99165.86;;;-0.14;100.00
51530;BME280;37613;51.788;21.582;2022-12-10T10:11:52;99169.19;;;-0.11;100.00
51530;BME280;37613;51.788;21.582;2022-12-10T10:15:54;99169.55;;;-0.12;100.00
51530;BME280;37613;51.788;21.582;2022-12-10T10:19:56;99168.33;;;-0.14;100.00
51530;BME280;37613;51.788;21.582;2022-12-10T10:24:00;99167.36;;;-0.16;100.00
51530;BME280;37613;51.788;21.582;2022-12-10T10:28:03;99156.36;;;-0.14;100.00
51530;BME280;37613;51.788;21.582;2022-12-10T10:32:20;99143.55;;;-0.14;100.00
51530;BME280;37613;51.788;21.582;2022-12-10T10:36:28;99134.41;;;-0.19;100.00
51530;BME280;37613;51.788;21.582;2022-12-10T10:40:43;99121.31;;;-0.21;100.00
51530;BME280;37613;51.788;21.582;2022-12-10T10:44:45;99112.89;;;-0.25;100.00
51530;BME280;37613;51.788;21.582;2022-12-10T10:48:48;99105.02;;;-0.27;100.00
51530;BME280;37613;51.788;21.582;2022-12-10T10:52:50;99098.64;;;-0.31;100.00
51530;BME280;37613;51.788;21.582;2022-12-10T10:56:54;99096.17;;;-0.32;100.00
51530;BME280;37613;51.788;21.582;2022-12-10T11:01:00;99095.73;;;-0.32;100.00
51530;BME280;37613;51.788;21.582;2022-12-10T11:05:23;99091.20;;;-0.30;100.00
51530;BME280;37613;51.788;21.582;2022-12-10T11:09:29;99086.01;;;-0.30;100.00
51530;BME280;37613;51.788;21.582;2022-12-10T11:13:34;99080.81;;;-0.29;100.00
51530;BME280;37613;51.788;21.582;2022-12-10T11:17:46;99076.11;;;-0.27;100.00
51530;BME280;37613;51.788;21.582;2022-12-10T11:21:49;99074.10;;;-0.27;100.00
51530;BME280;37613;51.788;21.582;2022-12-10T11:30:15;99085.64;;;-0.24;100.00
51530;BME280;37613;51.788;21.582;2022-12-10T11:56:38;99112.40;;;-0.23;100.00
51530;BME280;37613;51.788;21.582;2022-12-10T12:09:38;99135.73;;;-0.19;100.00
51530;BME280;37613;51.788;21.582;2022-12-10T12:18:02;99138.53;;;-0.22;100.00
51530;BME280;37613;51.788;21.582;2022-12-10T12:22:26;99132.66;;;-0.23;100.00
51530;BME280;37613;51.788;21.582;2022-12-10T12:26:32;99130.85;;;-0.24;100.00
51530;BME280;37613;51.788;21.582;2022-12-10T12:30:37;99137.27;;;-0.23;100.00
51530;BME280;37613;51.788;21.582;2022-12-10T12:34:49;99140.96;;;-0.21;100.00
51530;BME280;37613;51.788;21.582;2022-12-10T12:43:37;99138.27;;;-0.18;100.00
51530;BME280;37613;51.788;21.582;2022-12-10T12:48:11;99129.91;;;-0.22;100.00
51530;BME280;37613;51.788;21.582;2022-12-10T13:01:40;99149.17;;;-0.37;100.00
51530;BME280;37613;51.788;21.582;2022-12-10T13:05:44;99149.23;;;-0.38;100.00
51530;BME280;37613;51.788;21.582;2022-12-10T13:10:42;99150.10;;;-0.40;100.00
51530;BME280;37613;51.788;21.582;2022-12-10T13:14:17;99154.13;;;-0.40;100.00
51530;BME280;37613;51.788;21.582;2022-12-10T13:18:37;99162.90;;;-0.38;100.00
51530;BME280;37613;51.788;21.582;2022-12-10T13:22:56;99172.40;;;-0.40;100.00
51530;BME280;37613;51.788;21.582;2022-12-10T13:35:25;99187.62;;;-0.47;100.00
51530;BME280;37613;51.788;21.582;2022-12-10T13:39:45;99192.06;;;-0.50;100.00
51530;BME280;37613;51.788;21.582;2022-12-10T13:44:01;99190.77;;;-0.52;100.00
51530;BME280;37613;51.788;21.582;2022-12-10T13:48:42;99192.55;;;-0.55;100.00
51530;BME280;37613;51.788;21.582;2022-12-10T14:01:30;99205.65;;;-0.58;100.00
51530;BME280;37613;51.788;21.582;2022-12-10T14:09:55;99197.92;;;-0.60;100.00
51530;BME280;37613;51.788;21.582;2022-12-10T14:14:00;99197.92;;;-0.63;100.00
51530;BME280;37613;51.788;21.582;2022-12-10T14:18:09;99206.16;;;-0.65;100.00
51530;BME280;37613;51.788;21.582;2022-12-10T14:22:20;99209.15;;;-0.67;100.00
51530;BME280;37613;51.788;21.582;2022-12-10T14:26:31;99211.08;;;-0.67;100.00
51530;BME280;37613;51.788;21.582;2022-12-10T14:30:46;99207.51;;;-0.67;100.00
51530;BME280;37613;51.788;21.582;2022-12-10T14:34:55;99205.90;;;-0.66;100.00
51530;BME280;37613;51.788;21.582;2022-12-10T14:39:00;99200.25;;;-0.66;100.00
51530;BME280;37613;51.788;21.582;2022-12-10T14:43:06;99183.26;;;-0.68;100.00
51530;BME280;37613;51.788;21.582;2022-12-10T14:47:17;99176.72;;;-0.71;100.00
51530;BME280;37613;51.788;21.582;2022-12-10T14:51:22;99176.86;;;-0.72;100.00
51530;BME280;37613;51.788;21.582;2022-12-10T14:55:25;99180.37;;;-0.66;100.00
51530;BME280;37613;51.788;21.582;2022-12-10T14:59:45;99185.05;;;-0.70;100.00
51530;BME280;37613;51.788;21.582;2022-12-10T15:03:49;99194.52;;;-0.76;100.00
51530;BME280;37613;51.788;21.582;2022-12-10T15:08:02;99193.02;;;-0.79;100.00
51530;BME280;37613;51.788;21.582;2022-12-10T15:12:05;99193.31;;;-0.80;100.00
51530;BME280;37613;51.788;21.582;2022-12-10T15:16:19;99195.36;;;-0.77;100.00
51530;BME280;37613;51.788;21.582;2022-12-10T15:20:29;99195.05;;;-0.78;100.00
51530;BME280;37613;51.788;21.582;2022-12-10T15:24:41;99196.52;;;-0.81;100.00
51530;BME280;37613;51.788;21.582;2022-12-10T15:28:45;99191.91;;;-0.83;100.00
51530;BME280;37613;51.788;21.582;2022-12-10T15:32:50;99191.14;;;-0.86;100.00
51530;BME280;37613;51.788;21.582;2022-12-10T15:36:56;99198.62;;;-0.87;100.00
51530;BME280;37613;51.788;21.582;2022-12-10T15:42:04;99198.71;;;-0.86;100.00
51530;BME280;37613;51.788;21.582;2022-12-10T15:45:49;99203.70;;;-0.86;100.00
51530;BME280;37613;51.788;21.582;2022-12-10T15:49:54;99199.87;;;-0.87;100.00
51530;BME280;37613;51.788;21.582;2022-12-10T15:54:12;99206.83;;;-0.88;100.00
51530;BME280;37613;51.788;21.582;2022-12-10T15:58:17;99217.04;;;-0.89;100.00
51530;BME280;37613;51.788;21.582;2022-12-10T16:02:43;99220.23;;;-0.88;100.00
51530;BME280;37613;51.788;21.582;2022-12-10T16:06:49;99226.02;;;-0.87;100.00
51530;BME280;37613;51.788;21.582;2022-12-10T16:11:00;99230.30;;;-0.87;100.00
51530;BME280;37613;51.788;21.582;2022-12-10T16:15:07;99223.48;;;-0.86;100.00
51530;BME280;37613;51.788;21.582;2022-12-10T16:19:12;99222.13;;;-0.85;100.00
51530;BME280;37613;51.788;21.582;2022-12-10T16:23:16;99210.52;;;-0.84;100.00
51530;BME280;37613;51.788;21.582;2022-12-10T16:27:18;99207.71;;;-0.84;100.00
51530;BME280;37613;51.788;21.582;2022-12-10T16:31:23;99204.67;;;-0.85;100.00
51530;BME280;37613;51.788;21.582;2022-12-10T16:35:26;99206.46;;;-0.85;100.00
51530;BME280;37613;51.788;21.582;2022-12-10T16:39:31;99218.33;;;-0.85;100.00
51530;BME280;37613;51.788;21.582;2022-12-10T16:43:33;99224.62;;;-0.85;100.00
51530;BME280;37613;51.788;21.582;2022-12-10T16:47:38;99214.70;;;-0.84;100.00
51530;BME280;37613;51.788;21.582;2022-12-10T16:51:41;99204.17;;;-0.83;100.00
51530;BME280;37613;51.788;21.582;2022-12-10T16:55:47;99201.02;;;-0.81;100.00
51530;BME280;37613;51.788;21.582;2022-12-10T16:59:56;99206.96;;;-0.80;100.00
51530;BME280;37613;51.788;21.582;2022-12-10T17:03:59;99218.56;;;-0.79;100.00
51530;BME280;37613;51.788;21.582;2022-12-10T17:08:02;99224.73;;;-0.78;100.00
51530;BME280;37613;51.788;21.582;2022-12-10T17:12:06;99224.58;;;-0.75;100.00
51530;BME280;37613;51.788;21.582;2022-12-10T17:16:12;99227.58;;;-0.73;100.00
51530;BME280;37613;51.788;21.582;2022-12-10T17:20:17;99221.52;;;-0.73;100.00
51530;BME280;37613;51.788;21.582;2022-12-10T17:24:19;99220.05;;;-0.73;100.00
51530;BME280;37613;51.788;21.582;2022-12-10T17:28:22;99227.27;;;-0.73;100.00
51530;BME280;37613;51.788;21.582;2022-12-10T17:32:24;99224.89;;;-0.72;100.00
51530;BME280;37613;51.788;21.582;2022-12-10T17:36:27;99224.17;;;-0.71;100.00
51530;BME280;37613;51.788;21.582;2022-12-10T17:40:33;99220.11;;;-0.69;100.00
51530;BME280;37613;51.788;21.582;2022-12-10T17:44:38;99215.98;;;-0.71;100.00
51530;BME280;37613;51.788;21.582;2022-12-10T17:48:40;99219.05;;;-0.76;100.00
51530;BME280;37613;51.788;21.582;2022-12-10T17:52:43;99226.70;;;-0.82;100.00
51530;BME280;37613;51.788;21.582;2022-12-10T17:56:46;99229.59;;;-0.87;100.00
51530;BME280;37613;51.788;21.582;2022-12-10T18:00:52;99234.98;;;-0.91;100.00
51530;BME280;37613;51.788;21.582;2022-12-10T18:04:55;99242.73;;;-0.94;100.00
51530;BME280;37613;51.788;21.582;2022-12-10T18:09:00;99249.84;;;-0.97;100.00
51530;BME280;37613;51.788;21.582;2022-12-10T18:13:02;99248.48;;;-1.01;100.00
51530;BME280;37613;51.788;21.582;2022-12-10T18:17:11;99245.43;;;-1.04;100.00
51530;BME280;37613;51.788;21.582;2022-12-10T18:21:16;99242.20;;;-1.06;100.00
51530;BME280;37613;51.788;21.582;2022-12-10T18:25:22;99245.61;;;-1.06;100.00
51530;BME280;37613;51.788;21.582;2022-12-10T18:29:24;99244.70;;;-1.06;100.00
51530;BME280;37613;51.788;21.582;2022-12-10T18:33:26;99241.92;;;-1.04;100.00
51530;BME280;37613;51.788;21.582;2022-12-10T18:37:28;99239.41;;;-1.03;100.00
51530;BME280;37613;51.788;21.582;2022-12-10T18:41:38;99240.13;;;-1.02;100.00
51530;BME280;37613;51.788;21.582;2022-12-10T18:45:43;99240.16;;;-1.04;100.00
51530;BME280;37613;51.788;21.582;2022-12-10T18:49:46;99246.38;;;-1.06;100.00
51530;BME280;37613;51.788;21.582;2022-12-10T18:53:51;99245.75;;;-1.08;100.00
51530;BME280;37613;51.788;21.582;2022-12-10T18:57:54;99240.93;;;-1.09;100.00
51530;BME280;37613;51.788;21.582;2022-12-10T19:01:56;99234.86;;;-1.10;100.00
51530;BME280;37613;51.788;21.582;2022-12-10T19:06:01;99236.36;;;-1.11;100.00
51530;BME280;37613;51.788;21.582;2022-12-10T19:10:21;99242.83;;;-1.08;100.00
51530;BME280;37613;51.788;21.582;2022-12-10T19:14:27;99242.95;;;-1.04;100.00
51530;BME280;37613;51.788;21.582;2022-12-10T19:18:30;99241.61;;;-1.05;100.00
51530;BME280;37613;51.788;21.582;2022-12-10T19:22:32;99241.88;;;-1.03;100.00
51530;BME280;37613;51.788;21.582;2022-12-10T19:26:38;99240.96;;;-1.01;100.00
51530;BME280;37613;51.788;21.582;2022-12-10T19:30:42;99240.44;;;-1.00;100.00
51530;BME280;37613;51.788;21.582;2022-12-10T19:34:47;99237.36;;;-1.00;100.00
51530;BME280;37613;51.788;21.582;2022-12-10T19:38:51;99243.61;;;-1.01;100.00
51530;BME280;37613;51.788;21.582;2022-12-10T19:42:55;99248.49;;;-1.01;100.00
51530;BME280;37613;51.788;21.582;2022-12-10T19:46:59;99250.60;;;-1.00;100.00
51530;BME280;37613;51.788;21.582;2022-12-10T19:51:03;99248.08;;;-1.04;100.00
51530;BME280;37613;51.788;21.582;2022-12-10T19:55:06;99259.04;;;-1.11;100.00
51530;BME280;37613;51.788;21.582;2022-12-10T19:59:15;99262.05;;;-1.19;100.00
51530;BME280;37613;51.788;21.582;2022-12-10T20:03:18;99256.55;;;-1.25;100.00
51530;BME280;37613;51.788;21.582;2022-12-10T20:07:24;99255.65;;;-1.29;100.00
51530;BME280;37613;51.788;21.582;2022-12-10T20:11:27;99259.16;;;-1.34;100.00
51530;BME280;37613;51.788;21.582;2022-12-10T20:15:31;99257.12;;;-1.39;100.00
51530;BME280;37613;51.788;21.582;2022-12-10T20:19:33;99251.42;;;-1.42;100.00
51530;BME280;37613;51.788;21.582;2022-12-10T20:23:37;99247.30;;;-1.46;100.00
51530;BME280;37613;51.788;21.582;2022-12-10T20:27:41;99240.04;;;-1.50;100.00
51530;BME280;37613;51.788;21.582;2022-12-10T20:31:50;99240.47;;;-1.51;100.00
51530;BME280;37613;51.788;21.582;2022-12-10T20:35:54;99239.00;;;-1.53;100.00
51530;BME280;37613;51.788;21.582;2022-12-10T20:39:57;99238.20;;;-1.56;100.00
51530;BME280;37613;51.788;21.582;2022-12-10T20:43:59;99235.96;;;-1.58;100.00
51530;BME280;37613;51.788;21.582;2022-12-10T20:48:02;99229.05;;;-1.61;100.00
51530;BME280;37613;51.788;21.582;2022-12-10T20:52:05;99220.11;;;-1.64;100.00
51530;BME280;37613;51.788;21.582;2022-12-10T20:56:17;99227.98;;;-1.65;100.00
51530;BME280;37613;51.788;21.582;2022-12-10T21:00:21;99235.35;;;-1.68;100.00
51530;BME280;37613;51.788;21.582;2022-12-10T21:04:25;99234.83;;;-1.70;100.00
51530;BME280;37613;51.788;21.582;2022-12-10T21:08:28;99234.52;;;-1.70;100.00
51530;BME280;37613;51.788;21.582;2022-12-10T21:12:30;99236.34;;;-1.71;100.00
51530;BME280;37613;51.788;21.582;2022-12-10T21:16:32;99235.60;;;-1.70;100.00
51530;BME280;37613;51.788;21.582;2022-12-10T21:20:35;99229.41;;;-1.69;100.00
51530;BME280;37613;51.788;21.582;2022-12-10T21:24:38;99229.39;;;-1.70;100.00
51530;BME280;37613;51.788;21.582;2022-12-10T21:28:40;99228.02;;;-1.69;100.00
51530;BME280;37613;51.788;21.582;2022-12-10T21:32:43;99224.64;;;-1.69;100.00
51530;BME280;37613;51.788;21.582;2022-12-10T21:36:45;99216.70;;;-1.66;100.00
51530;BME280;37613;51.788;21.582;2022-12-10T21:40:48;99218.26;;;-1.66;100.00
51530;BME280;37613;51.788;21.582;2022-12-10T21:44:53;99221.56;;;-1.67;100.00
51530;BME280;37613;51.788;21.582;2022-12-10T21:49:00;99219.81;;;-1.66;100.00
51530;BME280;37613;51.788;21.582;2022-12-10T21:53:06;99223.17;;;-1.65;100.00
51530;BME280;37613;51.788;21.582;2022-12-10T21:57:09;99220.95;;;-1.67;100.00
51530;BME280;37613;51.788;21.582;2022-12-10T22:01:12;99210.88;;;-1.70;100.00
51530;BME280;37613;51.788;21.582;2022-12-10T22:05:14;99202.31;;;-1.73;100.00
51530;BME280;37613;51.788;21.582;2022-12-10T22:09:16;99194.20;;;-1.75;100.00
51530;BME280;37613;51.788;21.582;2022-12-10T22:13:18;99180.89;;;-1.77;100.00
51530;BME280;37613;51.788;21.582;2022-12-10T22:17:21;99176.42;;;-1.78;100.00
51530;BME280;37613;51.788;21.582;2022-12-10T22:21:23;99182.23;;;-1.78;100.00
51530;BME280;37613;51.788;21.582;2022-12-10T22:25:25;99180.42;;;-1.77;100.00
51530;BME280;37613;51.788;21.582;2022-12-10T22:29:28;99182.30;;;-1.77;100.00
51530;BME280;37613;51.788;21.582;2022-12-10T22:33:30;99183.99;;;-1.77;100.00
51530;BME280;37613;51.788;21.582;2022-12-10T22:37:32;99177.15;;;-1.78;100.00
51530;BME280;37613;51.788;21.582;2022-12-10T22:41:35;99171.67;;;-1.79;100.00